sensor_id;sensor_type;location;lat;lon;timestamp;pressure;altitude;pressure_sealevel;temperature;humidity
66196;BME280;53000;45.182;5.736;2023-08-01T00:01:56;98713.72;;;25.02;39.54
66196;BME280;53000;45.182;5.736;2023-08-01T00:04:22;98715.38;;;24.98;39.58
66196;BME280;53000;45.182;5.736;2023-08-01T00:06:47;98711.19;;;24.96;39.56
66196;BME280;53000;45.182;5.736;2023-08-01T00:09:12;98705.41;;;24.92;39.43
66196;BME280;53000;45.182;5.736;2023-08-01T00:11:38;98709.56;;;24.89;39.21
66196;BME280;53000;45.182;5.736;2023-08-01T00:14:03;98708.16;;;24.87;39.67
66196;BME280;53000;45.182;5.736;2023-08-01T00:16:28;98704.84;;;24.85;39.92
66196;BME280;53000;45.182;5.736;2023-08-01T00:18:54;98704.03;;;24.79;39.66
66196;BME280;53000;45.182;5.736;2023-08-01T00:21:19;98699.56;;;24.78;39.55
66196;BME280;53000;45.182;5.736;2023-08-01T00:23:44;98694.03;;;24.78;40.09
66196;BME280;53000;45.182;5.736;2023-08-01T00:26:09;98694.34;;;24.77;39.81
66196;BME280;53000;45.182;5.736;2023-08-01T00:28:35;98692.94;;;24.74;39.84
66196;BME280;53000;45.182;5.736;2023-08-01T00:33:28;98679.41;;;24.73;40.17
66196;BME280;53000;45.182;5.736;2023-08-01T00:35:54;98684.06;;;24.72;40.77
66196;BME280;53000;45.182;5.736;2023-08-01T00:38:19;98673.59;;;24.64;40.10
66196;BME280;53000;45.182;5.736;2023-08-01T00:40:45;98675.22;;;24.55;40.43
66196;BME280;53000;45.182;5.736;2023-08-01T00:43:10;98685.72;;;24.53;40.20
66196;BME280;53000;45.182;5.736;2023-08-01T00:45:35;98679.09;;;24.54;40.51
66196;BME280;53000;45.182;5.736;2023-08-01T00:48:01;98687.94;;;24.61;40.68
66196;BME280;53000;45.182;5.736;2023-08-01T00:50:26;98687.69;;;24.62;40.14
66196;BME280;53000;45.182;5.736;2023-08-01T00:52:52;98674.38;;;24.59;40.00
66196;BME280;53000;45.182;5.736;2023-08-01T00:55:18;98674.94;;;24.61;40.71
66196;BME280;53000;45.182;5.736;2023-08-01T00:57:43;98655.28;;;24.47;40.13
66196;BME280;53000;45.182;5.736;2023-08-01T01:00:09;98672.75;;;24.53;40.86
66196;BME280;53000;45.182;5.736;2023-08-01T01:02:36;98674.09;;;24.51;40.87
66196;BME280;53000;45.182;5.736;2023-08-01T01:05:02;98682.13;;;24.52;40.95
66196;BME280;53000;45.182;5.736;2023-08-01T01:07:29;98673.53;;;24.43;40.49
66196;BME280;53000;45.182;5.736;2023-08-01T01:09:54;98667.16;;;24.43;40.55
66196;BME280;53000;45.182;5.736;2023-08-01T01:12:20;98665.50;;;24.42;40.49
66196;BME280;53000;45.182;5.736;2023-08-01T01:14:45;98667.72;;;24.45;41.12
66196;BME280;53000;45.182;5.736;2023-08-01T01:17:11;98664.41;;;24.43;40.75
66196;BME280;53000;45.182;5.736;2023-08-01T01:19:36;98651.97;;;24.40;40.76
66196;BME280;53000;45.182;5.736;2023-08-01T01:22:03;98653.59;;;24.41;40.56
66196;BME280;53000;45.182;5.736;2023-08-01T01:24:31;98653.63;;;24.36;41.46
66196;BME280;53000;45.182;5.736;2023-08-01T01:26:57;98653.59;;;24.31;40.98
66196;BME280;53000;45.182;5.736;2023-08-01T01:29:26;98646.38;;;24.25;41.03
66196;BME280;53000;45.182;5.736;2023-08-01T01:31:52;98645.03;;;24.27;41.52
66196;BME280;53000;45.182;5.736;2023-08-01T01:34:18;98642.53;;;24.26;41.68
66196;BME280;53000;45.182;5.736;2023-08-01T01:36:43;98632.31;;;24.21;41.09
66196;BME280;53000;45.182;5.736;2023-08-01T01:39:09;98632.56;;;24.25;41.81
66196;BME280;53000;45.182;5.736;2023-08-01T01:41:34;98635.06;;;24.26;41.53
66196;BME280;53000;45.182;5.736;2023-08-01T01:44:00;98631.22;;;24.27;41.37
66196;BME280;53000;45.182;5.736;2023-08-01T01:46:25;98633.41;;;24.31;41.30
66196;BME280;53000;45.182;5.736;2023-08-01T01:48:50;98632.31;;;24.32;41.80
66196;BME280;53000;45.182;5.736;2023-08-01T01:51:16;98630.09;;;24.28;41.67
66196;BME280;53000;45.182;5.736;2023-08-01T01:53:41;98626.22;;;24.29;42.05
66196;BME280;53000;45.182;5.736;2023-08-01T01:56:07;98620.94;;;24.23;41.31
66196;BME280;53000;45.182;5.736;2023-08-01T01:58:33;98623.44;;;24.19;41.45
66196;BME280;53000;45.182;5.736;2023-08-01T02:00:58;98622.31;;;24.20;41.07
66196;BME280;53000;45.182;5.736;2023-08-01T02:03:23;98617.91;;;24.19;41.44
66196;BME280;53000;45.182;5.736;2023-08-01T02:05:49;98618.19;;;24.23;41.63
66196;BME280;53000;45.182;5.736;2023-08-01T02:08:14;98618.72;;;24.25;41.48
66196;BME280;53000;45.182;5.736;2023-08-01T02:10:39;98617.66;;;24.21;41.80
66196;BME280;53000;45.182;5.736;2023-08-01T02:13:05;98617.63;;;24.16;41.71
66196;BME280;53000;45.182;5.736;2023-08-01T02:15:30;98625.63;;;24.12;41.52
66196;BME280;53000;45.182;5.736;2023-08-01T02:17:56;98623.41;;;24.14;40.96
66196;BME280;53000;45.182;5.736;2023-08-01T02:20:21;98635.31;;;24.09;42.28
66196;BME280;53000;45.182;5.736;2023-08-01T02:22:46;98616.47;;;23.86;42.24
66196;BME280;53000;45.182;5.736;2023-08-01T02:25:12;98627.00;;;23.89;42.07
66196;BME280;53000;45.182;5.736;2023-08-01T02:27:37;98633.59;;;23.83;42.76
66196;BME280;53000;45.182;5.736;2023-08-01T02:30:03;98635.25;;;23.79;42.57
66196;BME280;53000;45.182;5.736;2023-08-01T02:32:30;98625.84;;;23.80;42.52
66196;BME280;53000;45.182;5.736;2023-08-01T02:34:55;98639.41;;;23.81;42.66
66196;BME280;53000;45.182;5.736;2023-08-01T02:37:21;98635.22;;;23.74;42.53
66196;BME280;53000;45.182;5.736;2023-08-01T02:39:46;98646.53;;;23.72;43.07
66196;BME280;53000;45.182;5.736;2023-08-01T02:42:11;98648.72;;;23.70;42.75
66196;BME280;53000;45.182;5.736;2023-08-01T02:44:37;98632.66;;;23.62;42.81
66196;BME280;53000;45.182;5.736;2023-08-01T02:47:02;98639.84;;;23.63;42.43
66196;BME280;53000;45.182;5.736;2023-08-01T02:49:27;98655.91;;;23.66;42.68
66196;BME280;53000;45.182;5.736;2023-08-01T02:51:53;98645.09;;;23.59;42.90
66196;BME280;53000;45.182;5.736;2023-08-01T02:54:18;98647.88;;;23.59;42.50
66196;BME280;53000;45.182;5.736;2023-08-01T02:56:43;98655.31;;;23.59;43.74
66196;BME280;53000;45.182;5.736;2023-08-01T02:59:09;98651.16;;;23.56;43.68
66196;BME280;53000;45.182;5.736;2023-08-01T03:01:35;98650.88;;;23.53;43.26
66196;BME280;53000;45.182;5.736;2023-08-01T03:04:05;98645.63;;;23.51;43.13
66196;BME280;53000;45.182;5.736;2023-08-01T03:06:33;98645.06;;;23.54;43.65
66196;BME280;53000;45.182;5.736;2023-08-01T03:08:59;98648.94;;;23.53;43.74
66196;BME280;53000;45.182;5.736;2023-08-01T03:11:25;98655.84;;;23.51;43.15
66196;BME280;53000;45.182;5.736;2023-08-01T03:13:51;98658.28;;;23.47;43.59
66196;BME280;53000;45.182;5.736;2023-08-01T03:16:17;98653.03;;;23.40;43.63
66196;BME280;53000;45.182;5.736;2023-08-01T03:18:42;98660.75;;;23.38;43.17
66196;BME280;53000;45.182;5.736;2023-08-01T03:21:08;98652.72;;;23.37;43.32
66196;BME280;53000;45.182;5.736;2023-08-01T03:23:33;98647.19;;;23.37;43.43
66196;BME280;53000;45.182;5.736;2023-08-01T03:25:59;98657.44;;;23.41;44.64
66196;BME280;53000;45.182;5.736;2023-08-01T03:28:26;98654.34;;;23.27;44.14
66196;BME280;53000;45.182;5.736;2023-08-01T03:30:51;98663.75;;;23.32;43.60
66196;BME280;53000;45.182;5.736;2023-08-01T03:33:18;98646.31;;;23.26;43.41
66196;BME280;53000;45.182;5.736;2023-08-01T03:35:44;98638.31;;;23.24;43.89
66196;BME280;53000;45.182;5.736;2023-08-01T03:38:09;98630.03;;;23.24;43.51
66196;BME280;53000;45.182;5.736;2023-08-01T03:40:34;98625.59;;;23.28;43.78
66196;BME280;53000;45.182;5.736;2023-08-01T03:43:00;98623.69;;;23.29;43.71
66196;BME280;53000;45.182;5.736;2023-08-01T03:45:25;98625.59;;;23.28;44.32
66196;BME280;53000;45.182;5.736;2023-08-01T03:47:50;98630.31;;;23.28;44.17
66196;BME280;53000;45.182;5.736;2023-08-01T03:50:16;98632.78;;;23.24;44.57
66196;BME280;53000;45.182;5.736;2023-08-01T03:52:42;98624.50;;;23.24;45.40
66196;BME280;53000;45.182;5.736;2023-08-01T03:55:07;98614.00;;;23.26;44.40
66196;BME280;53000;45.182;5.736;2023-08-01T03:57:32;98612.09;;;23.27;44.64
66196;BME280;53000;45.182;5.736;2023-08-01T03:59:59;98598.00;;;23.28;44.81
66196;BME280;53000;45.182;5.736;2023-08-01T04:02:25;98604.38;;;23.29;44.42
66196;BME280;53000;45.182;5.736;2023-08-01T04:04:50;98605.72;;;23.26;44.14
66196;BME280;53000;45.182;5.736;2023-08-01T04:07:15;98605.44;;;23.23;45.75
66196;BME280;53000;45.182;5.736;2023-08-01T04:09:41;98604.56;;;23.17;45.17
66196;BME280;53000;45.182;5.736;2023-08-01T04:12:06;98615.03;;;23.10;45.09
66196;BME280;53000;45.182;5.736;2023-08-01T04:14:33;98614.16;;;23.04;45.43
66196;BME280;53000;45.182;5.736;2023-08-01T04:16:58;98608.97;;;23.08;45.18
66196;BME280;53000;45.182;5.736;2023-08-01T04:19:24;98601.19;;;23.05;45.64
66196;BME280;53000;45.182;5.736;2023-08-01T04:21:50;98603.69;;;23.01;45.00
66196;BME280;53000;45.182;5.736;2023-08-01T04:24:15;98604.16;;;22.98;45.98
66196;BME280;53000;45.182;5.736;2023-08-01T04:26:40;98603.09;;;22.99;46.46
66196;BME280;53000;45.182;5.736;2023-08-01T04:29:06;98605.03;;;22.99;45.92
66196;BME280;53000;45.182;5.736;2023-08-01T04:31:31;98598.16;;;23.01;45.91
66196;BME280;53000;45.182;5.736;2023-08-01T04:33:56;98594.56;;;23.01;46.09
66196;BME280;53000;45.182;5.736;2023-08-01T04:36:22;98595.97;;;23.03;45.99
66196;BME280;53000;45.182;5.736;2023-08-01T04:38:47;98594.56;;;23.01;46.43
66196;BME280;53000;45.182;5.736;2023-08-01T04:41:12;98613.03;;;23.00;46.08
66196;BME280;53000;45.182;5.736;2023-08-01T04:43:38;98603.34;;;22.98;46.37
66196;BME280;53000;45.182;5.736;2023-08-01T04:46:03;98600.00;;;22.91;45.82
66196;BME280;53000;45.182;5.736;2023-08-01T04:48:28;98612.19;;;23.00;45.89
66196;BME280;53000;45.182;5.736;2023-08-01T04:50:54;98613.31;;;22.99;45.45
66196;BME280;53000;45.182;5.736;2023-08-01T04:53:19;98621.88;;;23.02;46.40
66196;BME280;53000;45.182;5.736;2023-08-01T04:55:44;98619.63;;;22.99;45.09
66196;BME280;53000;45.182;5.736;2023-08-01T04:58:10;98625.69;;;22.96;45.83
66196;BME280;53000;45.182;5.736;2023-08-01T05:00:35;98620.69;;;22.93;45.66
66196;BME280;53000;45.182;5.736;2023-08-01T05:03:00;98618.81;;;22.99;45.71
66196;BME280;53000;45.182;5.736;2023-08-01T05:05:26;98626.84;;;23.00;45.64
66196;BME280;53000;45.182;5.736;2023-08-01T05:07:51;98622.72;;;23.03;45.87
66196;BME280;53000;45.182;5.736;2023-08-01T05:10:17;98628.53;;;23.01;46.73
66196;BME280;53000;45.182;5.736;2023-08-01T05:12:42;98618.81;;;22.99;47.24
66196;BME280;53000;45.182;5.736;2023-08-01T05:15:08;98622.72;;;23.03;47.65
66196;BME280;53000;45.182;5.736;2023-08-01T05:17:33;98621.88;;;23.02;48.32
66196;BME280;53000;45.182;5.736;2023-08-01T05:19:58;98613.00;;;22.95;46.82
66196;BME280;53000;45.182;5.736;2023-08-01T05:22:24;98616.31;;;22.97;46.81
66196;BME280;53000;45.182;5.736;2023-08-01T05:24:49;98614.38;;;22.98;46.58
66196;BME280;53000;45.182;5.736;2023-08-01T05:27:15;98607.78;;;22.99;46.76
66196;BME280;53000;45.182;5.736;2023-08-01T05:29:40;98592.03;;;22.99;46.38
66196;BME280;53000;45.182;5.736;2023-08-01T05:32:05;98600.63;;;23.03;46.25
66196;BME280;53000;45.182;5.736;2023-08-01T05:34:31;98599.81;;;23.02;46.06
66196;BME280;53000;45.182;5.736;2023-08-01T05:36:56;98587.59;;;22.93;46.03
66196;BME280;53000;45.182;5.736;2023-08-01T05:39:22;98595.97;;;23.03;45.88
66196;BME280;53000;45.182;5.736;2023-08-01T05:41:47;98594.34;;;23.08;45.55
66196;BME280;53000;45.182;5.736;2023-08-01T05:44:12;98600.38;;;23.04;44.95
66196;BME280;53000;45.182;5.736;2023-08-01T05:46:38;98598.44;;;23.05;45.40
66196;BME280;53000;45.182;5.736;2023-08-01T05:49:03;98597.09;;;23.08;45.83
66196;BME280;53000;45.182;5.736;2023-08-01T05:51:28;98605.94;;;23.10;45.30
66196;BME280;53000;45.182;5.736;2023-08-01T05:53:54;98606.19;;;23.08;45.74
66196;BME280;53000;45.182;5.736;2023-08-01T05:56:19;98627.47;;;23.13;45.61
66196;BME280;53000;45.182;5.736;2023-08-01T05:58:44;98625.28;;;23.15;45.48
66196;BME280;53000;45.182;5.736;2023-08-01T06:01:10;98624.72;;;23.13;45.29
66196;BME280;53000;45.182;5.736;2023-08-01T06:03:37;98637.94;;;23.11;45.42
66196;BME280;53000;45.182;5.736;2023-08-01T06:06:02;98638.25;;;23.14;45.34
66196;BME280;53000;45.182;5.736;2023-08-01T06:08:28;98637.94;;;23.11;45.24
66196;BME280;53000;45.182;5.736;2023-08-01T06:10:53;98639.88;;;23.10;45.60
66196;BME280;53000;45.182;5.736;2023-08-01T06:13:19;98638.22;;;23.09;45.17
66196;BME280;53000;45.182;5.736;2023-08-01T06:15:44;98640.44;;;23.12;44.85
66196;BME280;53000;45.182;5.736;2023-08-01T06:18:10;98631.06;;;23.13;45.19
66196;BME280;53000;45.182;5.736;2023-08-01T06:20:37;98637.69;;;23.12;45.14
66196;BME280;53000;45.182;5.736;2023-08-01T06:23:02;98633.81;;;23.13;44.91
66196;BME280;53000;45.182;5.736;2023-08-01T06:25:27;98632.50;;;23.26;45.25
66196;BME280;53000;45.182;5.736;2023-08-01T06:27:53;98632.25;;;23.33;45.06
66196;BME280;53000;45.182;5.736;2023-08-01T06:30:18;98647.25;;;23.47;44.73
66196;BME280;53000;45.182;5.736;2023-08-01T06:32:43;98650.03;;;23.52;45.08
66196;BME280;53000;45.182;5.736;2023-08-01T06:35:09;98646.16;;;23.53;44.63
66196;BME280;53000;45.182;5.736;2023-08-01T06:37:34;98643.16;;;23.55;44.25
66196;BME280;53000;45.182;5.736;2023-08-01T06:40:01;98644.78;;;23.56;44.44
66196;BME280;53000;45.182;5.736;2023-08-01T06:42:26;98651.19;;;23.61;44.60
66196;BME280;53000;45.182;5.736;2023-08-01T06:44:51;98643.72;;;23.62;44.17
66196;BME280;53000;45.182;5.736;2023-08-01T06:47:17;98648.16;;;23.73;44.30
66196;BME280;53000;45.182;5.736;2023-08-01T06:49:43;98646.03;;;23.80;44.14
66196;BME280;53000;45.182;5.736;2023-08-01T06:52:09;98653.22;;;23.81;43.83
66196;BME280;53000;45.182;5.736;2023-08-01T06:54:34;98658.47;;;23.88;43.74
66196;BME280;53000;45.182;5.736;2023-08-01T06:56:59;98655.75;;;23.93;43.62
66196;BME280;53000;45.182;5.736;2023-08-01T06:59:25;98649.41;;;24.03;43.55
66196;BME280;53000;45.182;5.736;2023-08-01T07:01:51;98649.69;;;24.06;43.18
66196;BME280;53000;45.182;5.736;2023-08-01T07:04:16;98647.75;;;24.07;43.06
66196;BME280;53000;45.182;5.736;2023-08-01T07:06:42;98659.38;;;24.14;43.56
66196;BME280;53000;45.182;5.736;2023-08-01T07:09:07;98649.16;;;24.20;43.49
66196;BME280;53000;45.182;5.736;2023-08-01T07:11:33;98654.44;;;24.32;43.44
66196;BME280;53000;45.182;5.736;2023-08-01T07:13:58;98657.19;;;24.37;43.43
66196;BME280;53000;45.182;5.736;2023-08-01T07:16:24;98664.38;;;24.38;43.45
66196;BME280;53000;45.182;5.736;2023-08-01T07:18:49;98684.31;;;24.45;43.60
66196;BME280;53000;45.182;5.736;2023-08-01T07:21:16;98693.19;;;24.47;43.54
66196;BME280;53000;45.182;5.736;2023-08-01T07:23:41;98697.09;;;24.56;43.90
66196;BME280;53000;45.182;5.736;2023-08-01T07:26:07;98682.97;;;24.58;44.09
66196;BME280;53000;45.182;5.736;2023-08-01T07:28:32;98677.44;;;24.58;45.01
66196;BME280;53000;45.182;5.736;2023-08-01T07:31:01;98677.16;;;24.59;44.26
66196;BME280;53000;45.182;5.736;2023-08-01T07:33:27;98669.97;;;24.63;45.83
66196;BME280;53000;45.182;5.736;2023-08-01T07:35:53;98665.53;;;24.67;45.37
66196;BME280;53000;45.182;5.736;2023-08-01T07:38:18;98677.44;;;24.73;44.57
66196;BME280;53000;45.182;5.736;2023-08-01T07:40:44;98682.16;;;24.73;44.59
66196;BME280;53000;45.182;5.736;2023-08-01T07:43:09;98694.88;;;24.74;45.13
66196;BME280;53000;45.182;5.736;2023-08-01T07:45:34;98692.94;;;24.79;44.43
66196;BME280;53000;45.182;5.736;2023-08-01T07:48:00;98696.53;;;24.80;44.32
66196;BME280;53000;45.182;5.736;2023-08-01T07:50:26;98690.47;;;24.88;44.19
66196;BME280;53000;45.182;5.736;2023-08-01T07:52:51;98687.41;;;24.89;44.03
66196;BME280;53000;45.182;5.736;2023-08-01T07:55:17;98677.97;;;24.96;43.63
66196;BME280;53000;45.182;5.736;2023-08-01T07:57:43;98677.16;;;25.00;43.55
66196;BME280;53000;45.182;5.736;2023-08-01T08:00:10;98681.03;;;24.99;43.02
66196;BME280;53000;45.182;5.736;2023-08-01T08:02:36;98681.00;;;25.09;43.16
66196;BME280;53000;45.182;5.736;2023-08-01T08:05:01;98675.75;;;25.13;43.07
66196;BME280;53000;45.182;5.736;2023-08-01T08:07:26;98648.06;;;25.13;43.17
66196;BME280;53000;45.182;5.736;2023-08-01T08:09:52;98670.47;;;25.27;42.83
66196;BME280;53000;45.182;5.736;2023-08-01T08:12:20;98669.09;;;25.29;43.43
66196;BME280;53000;45.182;5.736;2023-08-01T08:14:45;98663.00;;;25.33;42.94
66196;BME280;53000;45.182;5.736;2023-08-01T08:17:11;98666.28;;;25.40;42.77
66196;BME280;53000;45.182;5.736;2023-08-01T08:19:36;98665.72;;;25.43;42.52
66196;BME280;53000;45.182;5.736;2023-08-01T08:22:01;98677.91;;;25.47;42.94
66196;BME280;53000;45.182;5.736;2023-08-01T08:24:27;98667.38;;;25.54;42.98
66196;BME280;53000;45.182;5.736;2023-08-01T08:26:52;98662.34;;;25.61;42.48
66196;BME280;53000;45.182;5.736;2023-08-01T08:29:17;98655.97;;;25.61;42.23
66196;BME280;53000;45.182;5.736;2023-08-01T08:31:43;98659.28;;;25.58;42.50
66196;BME280;53000;45.182;5.736;2023-08-01T08:34:08;98666.22;;;25.55;42.36
66196;BME280;53000;45.182;5.736;2023-08-01T08:36:33;98669.84;;;25.50;42.79
66196;BME280;53000;45.182;5.736;2023-08-01T08:38:59;98683.72;;;25.50;42.28
66196;BME280;53000;45.182;5.736;2023-08-01T08:41:27;98681.25;;;25.44;42.29
66196;BME280;53000;45.182;5.736;2023-08-01T08:43:56;98692.59;;;25.42;42.37
66196;BME280;53000;45.182;5.736;2023-08-01T08:46:28;98690.94;;;25.36;41.99
66196;BME280;53000;45.182;5.736;2023-08-01T08:48:55;98689.56;;;25.34;42.21
66196;BME280;53000;45.182;5.736;2023-08-01T08:51:21;98680.16;;;25.35;42.16
66196;BME280;53000;45.182;5.736;2023-08-01T08:53:46;98669.63;;;25.32;41.80
66196;BME280;53000;45.182;5.736;2023-08-01T08:56:12;98680.41;;;25.38;41.98
66196;BME280;53000;45.182;5.736;2023-08-01T08:58:39;98681.53;;;25.37;42.05
66196;BME280;53000;45.182;5.736;2023-08-01T09:01:06;98697.03;;;25.43;42.18
66196;BME280;53000;45.182;5.736;2023-08-01T09:03:34;98704.50;;;25.43;42.48
66196;BME280;53000;45.182;5.736;2023-08-01T09:06:04;98707.00;;;25.49;42.15
66196;BME280;53000;45.182;5.736;2023-08-01T09:08:35;98699.50;;;25.55;42.18
66196;BME280;53000;45.182;5.736;2023-08-01T09:11:01;98714.16;;;25.61;42.01
66196;BME280;53000;45.182;5.736;2023-08-01T09:13:27;98721.06;;;25.68;41.72
66196;BME280;53000;45.182;5.736;2023-08-01T09:15:52;98714.66;;;25.78;41.89
66196;BME280;53000;45.182;5.736;2023-08-01T09:18:18;98709.94;;;25.89;41.85
66196;BME280;53000;45.182;5.736;2023-08-01T09:20:45;98721.22;;;26.03;41.89
66196;BME280;53000;45.182;5.736;2023-08-01T09:23:11;98716.28;;;25.95;43.64
66196;BME280;53000;45.182;5.736;2023-08-01T09:25:38;98714.88;;;25.97;43.03
66196;BME280;53000;45.182;5.736;2023-08-01T09:28:17;98718.22;;;25.99;43.52
66196;BME280;53000;45.182;5.736;2023-08-01T09:30:47;98703.25;;;25.85;43.01
66196;BME280;53000;45.182;5.736;2023-08-01T09:33:13;98722.66;;;25.85;43.31
66196;BME280;53000;45.182;5.736;2023-08-01T09:35:39;98736.25;;;25.91;43.64
66196;BME280;53000;45.182;5.736;2023-08-01T09:38:04;98732.63;;;25.96;44.36
66196;BME280;53000;45.182;5.736;2023-08-01T09:40:37;98750.09;;;26.02;44.46
66196;BME280;53000;45.182;5.736;2023-08-01T09:43:03;98752.59;;;26.03;44.93
66196;BME280;53000;45.182;5.736;2023-08-01T09:45:28;98752.28;;;26.05;45.46
66196;BME280;53000;45.182;5.736;2023-08-01T09:47:53;98751.47;;;26.04;45.51
66196;BME280;53000;45.182;5.736;2023-08-01T09:50:21;98733.97;;;26.09;45.94
66196;BME280;53000;45.182;5.736;2023-08-01T09:52:47;98737.81;;;26.18;45.72
66196;BME280;53000;45.182;5.736;2023-08-01T09:55:19;98740.28;;;26.25;46.12
66196;BME280;53000;45.182;5.736;2023-08-01T09:57:48;98743.56;;;26.32;46.39
66196;BME280;53000;45.182;5.736;2023-08-01T10:00:15;98735.78;;;26.34;45.26
66196;BME280;53000;45.182;5.736;2023-08-01T10:02:42;98738.88;;;26.27;45.14
66196;BME280;53000;45.182;5.736;2023-08-01T10:05:08;98746.69;;;26.15;44.76
66196;BME280;53000;45.182;5.736;2023-08-01T10:07:38;98736.19;;;26.07;44.87
66196;BME280;53000;45.182;5.736;2023-08-01T10:10:04;98718.75;;;25.96;45.38
66196;BME280;53000;45.182;5.736;2023-08-01T10:12:31;98717.91;;;26.01;45.50
66196;BME280;53000;45.182;5.736;2023-08-01T10:14:57;98712.91;;;26.03;45.77
66196;BME280;53000;45.182;5.736;2023-08-01T10:17:24;98720.63;;;26.16;45.82
66196;BME280;53000;45.182;5.736;2023-08-01T10:19:50;98709.22;;;26.18;45.62
66196;BME280;53000;45.182;5.736;2023-08-01T10:22:18;98718.91;;;26.25;45.65
66196;BME280;53000;45.182;5.736;2023-08-01T10:24:46;98718.03;;;26.30;45.86
66196;BME280;53000;45.182;5.736;2023-08-01T10:27:19;98708.84;;;26.40;45.31
66196;BME280;53000;45.182;5.736;2023-08-01T10:29:56;98701.81;;;26.52;46.05
66196;BME280;53000;45.182;5.736;2023-08-01T10:32:29;98690.34;;;26.64;45.71
66196;BME280;53000;45.182;5.736;2023-08-01T10:34:56;98697.00;;;26.68;45.34
66196;BME280;53000;45.182;5.736;2023-08-01T10:37:21;98699.44;;;26.75;45.98
66196;BME280;53000;45.182;5.736;2023-08-01T10:39:56;98695.75;;;26.85;45.39
66196;BME280;53000;45.182;5.736;2023-08-01T10:42:22;98709.84;;;26.93;44.39
66196;BME280;53000;45.182;5.736;2023-08-01T10:44:47;98703.47;;;26.93;43.98
66196;BME280;53000;45.182;5.736;2023-08-01T10:47:12;98696.19;;;26.97;44.36
66196;BME280;53000;45.182;5.736;2023-08-01T10:49:44;98689.38;;;27.13;43.82
66196;BME280;53000;45.182;5.736;2023-08-01T10:52:23;98680.88;;;27.34;43.83
66196;BME280;53000;45.182;5.736;2023-08-01T10:55:03;98686.81;;;27.46;43.77
66196;BME280;53000;45.182;5.736;2023-08-01T10:57:31;98689.22;;;27.58;43.02
66196;BME280;53000;45.182;5.736;2023-08-01T10:59:57;98679.56;;;27.74;43.13
66196;BME280;53000;45.182;5.736;2023-08-01T11:02:25;98692.41;;;27.94;42.92
66196;BME280;53000;45.182;5.736;2023-08-01T11:07:29;98674.97;;;28.27;42.16
66196;BME280;53000;45.182;5.736;2023-08-01T11:10:21;98671.06;;;28.47;41.35
66196;BME280;53000;45.182;5.736;2023-08-01T11:12:47;98671.69;;;28.63;40.94
66196;BME280;53000;45.182;5.736;2023-08-01T11:15:14;98656.97;;;28.76;40.92
66196;BME280;53000;45.182;5.736;2023-08-01T11:17:46;98654.44;;;28.93;40.94
66196;BME280;53000;45.182;5.736;2023-08-01T11:20:12;98666.22;;;29.04;40.57
66196;BME280;53000;45.182;5.736;2023-08-01T11:22:58;98662.09;;;29.02;40.09
66196;BME280;53000;45.182;5.736;2023-08-01T11:25:38;98644.47;;;29.06;39.88
66196;BME280;53000;45.182;5.736;2023-08-01T11:28:15;98647.50;;;29.10;38.93
66196;BME280;53000;45.182;5.736;2023-08-01T11:30:41;98646.06;;;29.12;38.10
66196;BME280;53000;45.182;5.736;2023-08-01T11:33:17;98635.53;;;29.23;38.27
66196;BME280;53000;45.182;5.736;2023-08-01T11:35:43;98626.75;;;29.30;36.57
66196;BME280;53000;45.182;5.736;2023-08-01T11:38:08;98625.81;;;29.34;36.87
66196;BME280;53000;45.182;5.736;2023-08-01T11:40:34;98620.59;;;29.33;36.69
66196;BME280;53000;45.182;5.736;2023-08-01T11:42:59;98608.91;;;29.31;35.94
66196;BME280;53000;45.182;5.736;2023-08-01T11:45:25;98605.81;;;29.46;37.51
66196;BME280;53000;45.182;5.736;2023-08-01T11:47:51;98602.81;;;29.70;37.36
66196;BME280;53000;45.182;5.736;2023-08-01T11:50:24;98606.06;;;29.86;35.31
66196;BME280;53000;45.182;5.736;2023-08-01T11:52:50;98605.03;;;29.96;35.31
66196;BME280;53000;45.182;5.736;2023-08-01T11:55:25;98589.00;;;30.02;35.60
66196;BME280;53000;45.182;5.736;2023-08-01T11:57:57;98579.91;;;29.96;35.02
66196;BME280;53000;45.182;5.736;2023-08-01T12:00:27;98589.69;;;30.07;35.21
66196;BME280;53000;45.182;5.736;2023-08-01T12:03:06;98592.56;;;30.16;35.05
66196;BME280;53000;45.182;5.736;2023-08-01T12:05:32;98590.28;;;30.18;34.83
66196;BME280;53000;45.182;5.736;2023-08-01T12:08:08;98581.03;;;30.31;35.21
66196;BME280;53000;45.182;5.736;2023-08-01T12:10:41;98582.47;;;30.43;34.55
66196;BME280;53000;45.182;5.736;2023-08-01T12:13:19;98581.69;;;30.51;34.22
66196;BME280;53000;45.182;5.736;2023-08-01T12:15:46;98583.19;;;30.57;33.59
66196;BME280;53000;45.182;5.736;2023-08-01T12:18:19;98571.84;;;30.53;33.67
66196;BME280;53000;45.182;5.736;2023-08-01T12:20:45;98580.75;;;30.55;33.91
66196;BME280;53000;45.182;5.736;2023-08-01T12:23:10;98577.50;;;30.62;34.13
66196;BME280;53000;45.182;5.736;2023-08-01T12:25:35;98572.56;;;30.68;32.28
66196;BME280;53000;45.182;5.736;2023-08-01T12:28:04;98578.50;;;30.66;33.21
66196;BME280;53000;45.182;5.736;2023-08-01T12:30:30;98573.75;;;30.67;33.93
66196;BME280;53000;45.182;5.736;2023-08-01T12:32:55;98561.91;;;30.70;33.20
66196;BME280;53000;45.182;5.736;2023-08-01T12:35:20;98561.28;;;30.73;33.23
66196;BME280;53000;45.182;5.736;2023-08-01T12:37:46;98566.56;;;30.74;33.42
66196;BME280;53000;45.182;5.736;2023-08-01T12:40:11;98564.94;;;30.82;33.48
66196;BME280;53000;45.182;5.736;2023-08-01T12:42:36;98562.56;;;30.89;34.06
66196;BME280;53000;45.182;5.736;2023-08-01T12:45:02;98563.22;;;30.95;33.54
66196;BME280;53000;45.182;5.736;2023-08-01T12:47:28;98557.81;;;30.98;32.46
66196;BME280;53000;45.182;5.736;2023-08-01T12:49:54;98556.69;;;31.08;32.64
66196;BME280;53000;45.182;5.736;2023-08-01T12:52:23;98549.34;;;31.21;33.50
66196;BME280;53000;45.182;5.736;2023-08-01T12:54:52;98554.16;;;31.38;32.36
66196;BME280;53000;45.182;5.736;2023-08-01T12:57:17;98550.75;;;31.41;32.62
66196;BME280;53000;45.182;5.736;2023-08-01T12:59:44;98548.75;;;31.42;32.61
66196;BME280;53000;45.182;5.736;2023-08-01T13:02:09;98553.28;;;31.60;32.76